Time;durP1;ratioP1;P1;durP2;ratioP2;P2;SDS_P1;SDS_P2;PMS_P1;PMS_P2;Temp;Humidity;BMP_temperature;BMP_pressure;BME280_temperature;BME280_humidity;BME280_pressure;Samples;Min_cycle;Max_cycle;Signal;HPM_P1;HPM_P2
2022/09/03 00:00:16;;;;;;;4.82;1.92;;;19.50;79.00;;;;;;4995027;28;20367;-67
2022/09/03 00:03:04;;;;;;;5.05;1.80;;;19.50;78.80;;;;;;4991181;28;20511;-68
2022/09/03 00:05:42;;;;;;;4.30;2.30;;;19.50;79.10;;;;;;4993688;28;20026;-68
2022/09/03 00:08:50;;;;;;;4.88;2.58;;;19.40;79.20;;;;;;4993104;28;20030;-68
2022/09/03 00:11:27;;;;;;;5.40;1.98;;;19.40;79.30;;;;;;4981327;28;20057;-69
2022/09/03 00:14:12;;;;;;;6.25;2.17;;;19.40;79.50;;;;;;4992336;28;20345;-67
2022/09/03 00:16:57;;;;;;;4.25;2.05;;;19.30;79.70;;;;;;4994546;28;20081;-68
2022/09/03 00:19:32;;;;;;;5.32;1.92;;;19.30;79.80;;;;;;4995454;28;20034;-68
2022/09/03 00:22:02;;;;;;;4.45;1.90;;;19.30;80.10;;;;;;4994487;28;20113;-68
2022/09/03 00:24:38;;;;;;;4.93;1.70;;;19.20;80.10;;;;;;4993851;28;20030;-69
2022/09/03 00:27:10;;;;;;;6.05;2.20;;;19.20;80.20;;;;;;4992368;28;20019;-68
2022/09/03 00:29:42;;;;;;;5.50;2.00;;;19.20;80.30;;;;;;4995290;28;20085;-68
2022/09/03 00:32:19;;;;;;;5.93;2.10;;;19.20;80.50;;;;;;4993383;28;20045;-67
2022/09/03 00:34:51;;;;;;;6.35;2.25;;;19.10;80.60;;;;;;4992419;28;20028;-68
2022/09/03 00:37:17;;;;;;;4.07;2.03;;;19.10;80.70;;;;;;4994572;28;20026;-68
2022/09/03 00:39:43;;;;;;;4.85;1.90;;;19.10;80.80;;;;;;4994748;28;20449;-69
2022/09/03 00:42:28;;;;;;;2.63;1.70;;;19.10;81.10;;;;;;4994806;28;20098;-68
2022/09/03 00:45:21;;;;;;;4.68;1.98;;;19.00;81.40;;;;;;4991194;28;20068;-69
2022/09/03 00:48:11;;;;;;;2.58;1.95;;;19.00;81.30;;;;;;4992686;28;20486;-68
2022/09/03 00:51:05;;;;;;;4.57;1.88;;;18.90;81.30;;;;;;4976151;28;20418;-67
2022/09/03 00:54:05;;;;;;;2.65;1.48;;;18.90;81.50;;;;;;4975896;28;20070;-68
2022/09/03 00:57:11;;;;;;;2.53;1.90;;;18.90;81.70;;;;;;4976205;28;20030;-67
2022/09/03 00:59:59;;;;;;;5.95;2.22;;;18.80;81.80;;;;;;4985553;28;20046;-67
2022/09/03 01:02:46;;;;;;;3.63;1.70;;;18.80;82.10;;;;;;4994215;28;20036;-68
2022/09/03 01:05:21;;;;;;;3.25;1.70;;;18.80;82.20;;;;;;4995021;28;20381;-67
2022/09/03 01:08:05;;;;;;;4.72;1.70;;;18.70;82.30;;;;;;4994980;28;20029;-67
2022/09/03 01:10:31;;;;;;;3.88;1.77;;;18.70;82.50;;;;;;4994585;28;20452;-67
2022/09/03 01:13:18;;;;;;;4.28;2.03;;;18.70;82.50;;;;;;4994926;28;20026;-68
2022/09/03 01:16:12;;;;;;;6.30;1.90;;;18.70;82.70;;;;;;4994594;28;20368;-67
2022/09/03 01:19:12;;;;;;;5.82;1.88;;;18.60;82.60;;;;;;4993253;28;20026;-67
2022/09/03 01:22:04;;;;;;;3.47;1.90;;;18.60;82.80;;;;;;4994734;28;20105;-69
2022/09/03 01:25:04;;;;;;;3.85;1.95;;;18.60;82.90;;;;;;4994622;28;20374;-69
2022/09/03 01:27:43;;;;;;;5.85;2.22;;;18.60;83.10;;;;;;4994523;28;20030;-67
2022/09/03 01:30:17;;;;;;;2.92;1.88;;;18.60;83.10;;;;;;4994458;28;20109;-67
2022/09/03 01:33:10;;;;;;;4.07;2.08;;;18.50;83.20;;;;;;4994639;28;20033;-68
2022/09/03 01:36:18;;;;;;;3.13;1.77;;;18.50;83.40;;;;;;4994627;28;20467;-68
2022/09/03 01:38:52;;;;;;;3.33;1.92;;;18.50;83.50;;;;;;4995001;28;20145;-66
2022/09/03 01:44:58;;;;;;;3.15;1.77;;;18.40;83.80;;;;;;4994004;28;20527;-68
2022/09/03 01:47:48;;;;;;;3.47;2.03;;;18.40;83.70;;;;;;4981005;28;20456;-67
2022/09/03 01:50:38;;;;;;;4.80;1.70;;;18.40;83.60;;;;;;4993603;28;20109;-68
2022/09/03 01:53:29;;;;;;;12.63;1.90;;;18.30;83.60;;;;;;4992904;28;20026;-67
2022/09/03 01:56:20;;;;;;;4.43;1.95;;;18.30;83.80;;;;;;4993626;28;20064;-66
2022/09/03 01:59:01;;;;;;;5.93;2.10;;;18.30;83.80;;;;;;4993472;28;20072;-69
2022/09/03 02:01:35;;;;;;;5.88;1.75;;;18.30;83.90;;;;;;4993977;28;20041;-69
2022/09/03 02:04:12;;;;;;;4.05;1.88;;;18.20;84.10;;;;;;4993659;28;20085;-67
2022/09/03 02:06:39;;;;;;;4.65;1.75;;;18.20;84.20;;;;;;4993997;28;20072;-69
2022/09/03 02:09:04;;;;;;;4.50;1.70;;;18.20;84.50;;;;;;4993772;28;20563;-68
2022/09/03 02:11:30;;;;;;;4.57;1.83;;;18.10;84.50;;;;;;4993669;28;20045;-66
2022/09/03 02:13:58;;;;;;;3.40;1.80;;;18.10;84.60;;;;;;4993857;28;20118;-67
2022/09/03 02:16:30;;;;;;;5.18;1.58;;;18.20;84.90;;;;;;4993914;28;20029;-67
2022/09/03 02:19:00;;;;;;;1.45;1.30;;;18.10;85.00;;;;;;4993582;28;20321;-66
2022/09/03 02:21:31;;;;;;;4.82;2.08;;;18.00;85.00;;;;;;4992930;28;20026;-68
2022/09/03 02:23:57;;;;;;;5.13;1.90;;;18.00;85.20;;;;;;4993598;28;20029;-68
2022/09/03 02:26:23;;;;;;;4.47;1.92;;;18.00;85.50;;;;;;4993624;28;20026;-68
2022/09/03 02:28:50;;;;;;;6.28;2.13;;;18.00;85.80;;;;;;4993331;28;20053;-66
2022/09/03 02:31:16;;;;;;;7.25;2.22;;;17.90;86.00;;;;;;4993345;28;20365;-68
2022/09/03 02:33:45;;;;;;;4.80;1.80;;;17.90;86.20;;;;;;4992110;28;20029;-68
2022/09/03 02:36:13;;;;;;;6.55;2.08;;;17.80;86.00;;;;;;4993405;28;20026;-67
2022/09/03 02:38:41;;;;;;;5.40;1.92;;;17.80;86.10;;;;;;4992103;28;20022;-67
2022/09/03 02:41:07;;;;;;;4.65;2.03;;;17.80;86.20;;;;;;4993462;28;20066;-66
2022/09/03 02:43:41;;;;;;;4.22;1.60;;;17.80;86.20;;;;;;4993589;28;20096;-68
2022/09/03 02:46:11;;;;;;;7.45;3.05;;;17.80;86.30;;;;;;4992842;28;20022;-67
2022/09/03 02:48:36;;;;;;;4.85;1.75;;;17.80;86.40;;;;;;4993263;28;20100;-68
2022/09/03 02:51:02;;;;;;;4.60;1.75;;;17.70;86.40;;;;;;4993120;28;20074;-68
2022/09/03 02:53:28;;;;;;;4.22;1.70;;;17.70;86.60;;;;;;4992876;28;20034;-68
2022/09/03 02:56:00;;;;;;;4.43;1.77;;;17.70;87.00;;;;;;4993261;28;20181;-69
2022/09/03 02:58:27;;;;;;;6.15;2.08;;;17.70;86.90;;;;;;4992740;28;20053;-67
2022/09/03 03:00:53;;;;;;;3.55;1.98;;;17.70;87.00;;;;;;4992825;28;20038;-67
2022/09/03 03:03:19;;;;;;;6.63;2.53;;;17.60;87.10;;;;;;4993018;28;20022;-70
2022/09/03 03:05:49;;;;;;;7.47;2.05;;;17.60;87.20;;;;;;4992642;28;20049;-66
2022/09/03 03:08:16;;;;;;;5.03;2.00;;;17.60;87.20;;;;;;4991978;28;20026;-67
2022/09/03 03:10:43;;;;;;;3.58;1.88;;;17.60;87.30;;;;;;4991661;28;20469;-68
2022/09/03 03:13:09;;;;;;;8.02;2.20;;;17.60;88.00;;;;;;4991246;28;20065;-68
2022/09/03 03:15:35;;;;;;;5.22;1.98;;;17.50;87.40;;;;;;4991436;28;20400;-68
2022/09/03 03:18:01;;;;;;;3.05;1.90;;;17.50;87.60;;;;;;4991625;28;20018;-67
2022/09/03 03:20:26;;;;;;;4.38;2.10;;;17.50;87.60;;;;;;4991297;28;20014;-67
2022/09/03 03:22:52;;;;;;;5.40;2.15;;;17.40;87.60;;;;;;4991501;28;20432;-67
2022/09/03 03:25:17;;;;;;;5.50;2.20;;;17.50;87.70;;;;;;4990679;28;20053;-68
2022/09/03 03:27:43;;;;;;;6.63;2.20;;;17.40;87.80;;;;;;4991374;28;20034;-69
2022/09/03 03:30:10;;;;;;;7.22;1.90;;;17.40;88.00;;;;;;4991144;28;20022;-67
2022/09/03 03:32:36;;;;;;;3.05;2.00;;;17.40;88.40;;;;;;4991273;28;20445;-67
2022/09/03 03:35:03;;;;;;;3.58;1.95;;;17.30;88.60;;;;;;4991355;28;20022;-67
2022/09/03 03:37:29;;;;;;;3.38;1.90;;;17.30;88.60;;;;;;4989983;28;20126;-69
2022/09/03 03:39:55;;;;;;;7.22;1.73;;;17.30;88.70;;;;;;4991026;28;20025;-69
2022/09/03 03:42:20;;;;;;;9.07;1.80;;;17.20;88.70;;;;;;4991309;28;20423;-68
2022/09/03 03:44:46;;;;;;;3.42;1.65;;;17.20;89.10;;;;;;4989818;28;20019;-67
2022/09/03 03:47:11;;;;;;;5.22;1.90;;;17.20;89.30;;;;;;4991473;28;20014;-67
2022/09/03 03:49:37;;;;;;;4.32;1.83;;;17.20;89.30;;;;;;4991392;28;20207;-68
2022/09/03 03:52:03;;;;;;;5.10;2.20;;;17.20;89.50;;;;;;4989860;28;20030;-67
2022/09/03 03:54:29;;;;;;;7.70;1.95;;;17.20;89.60;;;;;;4991595;28;20018;-68
2022/09/03 03:56:55;;;;;;;5.18;1.70;;;17.10;89.90;;;;;;4991395;28;20365;-69
2022/09/03 03:59:21;;;;;;;7.80;2.33;;;17.10;90.00;;;;;;4991255;28;20022;-69
2022/09/03 04:01:49;;;;;;;4.72;2.00;;;17.10;90.00;;;;;;4991051;28;20038;-68
2022/09/03 04:04:15;;;;;;;4.20;2.13;;;17.00;90.10;;;;;;4991176;28;20011;-68
2022/09/03 04:06:41;;;;;;;7.40;2.25;;;17.00;90.30;;;;;;4991189;28;20026;-69
2022/09/03 04:09:07;;;;;;;9.38;3.00;;;17.00;90.30;;;;;;4990777;28;20043;-68
2022/09/03 04:11:32;;;;;;;7.05;2.65;;;17.00;90.40;;;;;;4990893;28;20018;-66
2022/09/03 04:13:58;;;;;;;5.65;2.65;;;16.90;90.50;;;;;;4990811;28;20085;-67
2022/09/03 04:16:26;;;;;;;4.53;2.13;;;16.90;90.60;;;;;;4991187;28;20026;-67
2022/09/03 04:18:53;;;;;;;4.38;2.00;;;16.90;90.60;;;;;;4990741;28;20023;-68
2022/09/03 04:21:21;;;;;;;4.07;2.08;;;16.80;90.60;;;;;;4992035;28;20461;-68
2022/09/03 04:23:48;;;;;;;6.68;2.35;;;16.80;90.80;;;;;;4989938;28;20337;-67
2022/09/03 04:26:16;;;;;;;5.20;2.22;;;16.80;90.80;;;;;;4990503;28;20354;-67
2022/09/03 04:28:42;;;;;;;4.15;2.00;;;16.80;90.90;;;;;;4992163;28;20053;-67
2022/09/03 04:31:09;;;;;;;3.95;2.15;;;16.80;91.00;;;;;;4992111;28;20108;-68
2022/09/03 04:33:38;;;;;;;7.53;2.47;;;16.70;90.90;;;;;;4991705;28;20037;-67
2022/09/03 04:36:24;;;;;;;4.45;1.85;;;16.80;90.90;;;;;;4992293;28;20105;-67
2022/09/03 04:38:53;;;;;;;4.43;2.05;;;16.80;91.00;;;;;;4995500;28;20022;-68
2022/09/03 04:41:25;;;;;;;2.22;1.60;;;16.80;90.80;;;;;;4995364;28;20038;-67
2022/09/03 04:43:56;;;;;;;3.53;1.90;;;16.80;90.70;;;;;;4995459;28;20033;-69
2022/09/03 04:46:24;;;;;;;3.10;1.70;;;16.80;90.70;;;;;;4995539;28;20026;-68
2022/09/03 04:48:52;;;;;;;2.67;1.75;;;16.80;90.70;;;;;;4995692;28;20030;-67
2022/09/03 04:51:26;;;;;;;4.80;1.92;;;16.80;90.70;;;;;;4995348;28;20022;-67
2022/09/03 04:53:57;;;;;;;4.78;1.98;;;16.80;90.80;;;;;;4994082;28;20026;-68
2022/09/03 04:56:28;;;;;;;4.60;2.08;;;16.80;90.80;;;;;;4995195;28;20022;-67
2022/09/03 04:58:59;;;;;;;3.47;1.80;;;16.80;90.90;;;;;;4995288;28;20080;-69
2022/09/03 05:01:27;;;;;;;4.40;1.70;;;16.80;90.90;;;;;;4993492;28;20034;-68
2022/09/03 05:03:55;;;;;;;4.07;1.73;;;16.80;91.00;;;;;;4994948;28;20026;-68
2022/09/03 05:06:23;;;;;;;3.13;1.77;;;16.80;91.10;;;;;;4995224;28;20057;-67
2022/09/03 05:08:51;;;;;;;5.57;1.90;;;16.80;91.10;;;;;;4993405;28;20084;-70
2022/09/03 05:11:18;;;;;;;7.10;2.10;;;16.80;91.10;;;;;;4993817;28;20438;-67
2022/09/03 05:13:47;;;;;;;5.00;1.80;;;16.80;91.10;;;;;;4995207;28;20030;-69
2022/09/03 05:16:13;;;;;;;3.63;1.90;;;16.80;91.20;;;;;;4995295;28;20050;-68
2022/09/03 05:18:41;;;;;;;7.05;2.50;;;16.80;91.20;;;;;;4995042;28;20065;-68
2022/09/03 05:21:12;;;;;;;2.35;1.60;;;16.80;91.20;;;;;;4995140;28;20539;-67
2022/09/03 05:23:39;;;;;;;4.72;2.15;;;16.90;91.20;;;;;;4994768;28;20408;-66
2022/09/03 05:26:10;;;;;;;3.80;1.77;;;16.80;91.30;;;;;;4994926;28;20031;-67
2022/09/03 05:28:38;;;;;;;5.65;2.03;;;16.90;91.30;;;;;;4993873;28;20040;-68
2022/09/03 05:31:06;;;;;;;5.75;2.20;;;16.90;91.30;;;;;;4994782;28;20106;-67
2022/09/03 05:33:58;;;;;;;5.15;2.05;;;16.90;91.30;;;;;;4994458;28;20377;-67
2022/09/03 05:36:26;;;;;;;2.53;1.50;;;17.00;91.20;;;;;;4994982;28;20022;-68
2022/09/03 05:38:56;;;;;;;4.32;1.92;;;17.00;91.10;;;;;;4994570;28;20093;-67
2022/09/03 05:41:22;;;;;;;2.85;1.92;;;17.10;91.00;;;;;;4994396;28;20042;-67
2022/09/03 05:43:54;;;;;;;2.05;1.60;;;17.10;91.00;;;;;;4994553;28;20077;-68
2022/09/03 05:46:25;;;;;;;4.75;2.03;;;17.10;90.90;;;;;;4994560;28;20033;-66
2022/09/03 05:48:51;;;;;;;6.15;2.08;;;17.20;90.90;;;;;;4993969;28;20060;-67
2022/09/03 05:51:17;;;;;;;5.35;2.00;;;17.20;90.70;;;;;;4993864;28;20528;-66
2022/09/03 05:53:45;;;;;;;6.70;2.00;;;17.30;90.60;;;;;;4994474;28;20461;-67
2022/09/03 05:56:16;;;;;;;6.35;1.95;;;17.40;90.50;;;;;;4994303;28;20014;-67
2022/09/03 05:58:44;;;;;;;8.55;1.95;;;17.40;90.40;;;;;;4994214;28;20034;-67
2022/09/03 06:01:22;;;;;;;2.00;1.30;;;17.50;90.30;;;;;;4994073;28;20030;-66
2022/09/03 06:03:57;;;;;;;6.97;2.47;;;17.60;90.20;;;;;;4993846;28;20034;-69
2022/09/03 06:06:24;;;;;;;10.65;2.13;;;17.60;90.00;;;;;;4994170;28;20172;-67
2022/09/03 06:09:09;;;;;;;7.13;1.88;;;17.80;90.00;;;;;;4993687;28;20026;-67
2022/09/03 06:11:36;;;;;;;5.30;1.77;;;17.80;89.70;;;;;;4993934;28;20030;-67
2022/09/03 06:14:05;;;;;;;8.13;2.00;;;17.90;89.40;;;;;;4994013;28;20534;-66
2022/09/03 06:16:32;;;;;;;2.58;1.55;;;17.90;89.30;;;;;;4993580;28;20026;-68
2022/09/03 06:19:01;;;;;;;5.13;1.60;;;18.00;89.00;;;;;;4993739;28;20471;-66
2022/09/03 06:21:27;;;;;;;4.13;1.77;;;18.10;89.00;;;;;;4993833;28;20033;-65
2022/09/03 06:23:58;;;;;;;2.90;1.63;;;18.20;88.60;;;;;;4994092;28;20026;-69
2022/09/03 06:26:24;;;;;;;4.57;1.63;;;18.20;88.70;;;;;;4994397;28;20022;-67
2022/09/03 06:28:53;;;;;;;5.10;1.77;;;18.30;88.00;;;;;;4993601;28;20023;-67
2022/09/03 06:31:19;;;;;;;4.57;1.77;;;18.40;87.80;;;;;;4992337;28;20354;-67
2022/09/03 06:33:46;;;;;;;2.58;1.60;;;18.50;87.40;;;;;;4993671;28;20045;-67
2022/09/03 06:36:17;;;;;;;6.72;1.60;;;18.60;87.40;;;;;;4993800;28;20109;-69
2022/09/03 06:38:44;;;;;;;2.75;1.45;;;18.70;86.90;;;;;;4993392;28;20066;-67
2022/09/03 06:41:13;;;;;;;2.08;1.40;;;18.80;86.60;;;;;;4993303;28;20038;-68
2022/09/03 06:43:40;;;;;;;5.53;1.25;;;18.90;86.20;;;;;;4993449;28;20030;-68
2022/09/03 06:46:08;;;;;;;4.55;1.70;;;19.00;85.90;;;;;;4993699;28;20137;-67
2022/09/03 06:48:35;;;;;;;3.50;1.73;;;19.00;85.40;;;;;;4993506;28;20424;-66
2022/09/03 06:51:06;;;;;;;7.82;1.80;;;19.10;85.10;;;;;;4993704;28;20030;-68
2022/09/03 06:53:37;;;;;;;5.65;1.75;;;19.20;85.00;;;;;;4991963;28;20302;-67
2022/09/03 06:56:05;;;;;;;5.30;1.77;;;19.30;85.00;;;;;;4993269;28;20026;-67
2022/09/03 06:58:36;;;;;;;2.75;1.45;;;19.40;84.80;;;;;;4992980;28;20026;-66
2022/09/03 07:01:07;;;;;;;5.35;1.55;;;19.50;84.50;;;;;;4992362;28;20073;-68
2022/09/03 07:03:34;;;;;;;4.00;1.50;;;19.60;84.60;;;;;;4993463;28;20453;-67
2022/09/03 07:06:08;;;;;;;4.68;1.65;;;19.70;83.80;;;;;;4991905;28;20411;-69
2022/09/03 07:08:34;;;;;;;9.07;3.05;;;19.80;83.50;;;;;;4992494;28;20126;-68
2022/09/03 07:11:08;;;;;;;5.55;1.60;;;19.90;83.10;;;;;;4993139;28;20049;-68
2022/09/03 07:13:53;;;;;;;4.35;2.00;;;20.00;82.60;;;;;;4992954;28;20062;-67
2022/09/03 07:16:31;;;;;;;7.03;1.70;;;20.10;82.20;;;;;;4992591;28;20022;-68
2022/09/03 07:18:56;;;;;;;3.85;1.40;;;20.20;82.10;;;;;;4992635;28;20037;-68
2022/09/03 07:21:24;;;;;;;2.35;1.67;;;20.30;82.10;;;;;;4992876;28;20034;-69
2022/09/03 07:23:51;;;;;;;4.05;1.80;;;20.40;81.90;;;;;;4992942;28;20044;-69
2022/09/03 07:26:29;;;;;;;3.97;1.73;;;20.60;81.50;;;;;;4992998;28;20463;-67
2022/09/03 07:28:55;;;;;;;4.80;1.50;;;20.70;80.90;;;;;;4992892;28;20026;-67
2022/09/03 07:31:26;;;;;;;3.15;1.42;;;21.00;80.00;;;;;;4992917;28;20108;-68
2022/09/03 07:33:59;;;;;;;5.93;1.50;;;21.30;79.50;;;;;;4993019;28;20030;-67
2022/09/03 07:36:27;;;;;;;7.22;1.98;;;21.70;78.70;;;;;;4992463;28;20026;-67
2022/09/03 07:38:58;;;;;;;3.75;1.95;;;22.10;77.90;;;;;;4992731;28;20122;-68
2022/09/03 07:41:25;;;;;;;4.13;1.92;;;22.70;76.80;;;;;;4992554;28;20042;-67
2022/09/03 07:43:51;;;;;;;3.53;1.30;;;23.30;75.20;;;;;;4992438;28;20109;-68
2022/09/03 07:46:23;;;;;;;2.63;1.73;;;23.90;73.50;;;;;;4992682;28;20109;-69
2022/09/03 07:48:51;;;;;;;3.83;1.48;;;24.40;72.40;;;;;;4992787;28;20030;-69
2022/09/03 07:51:18;;;;;;;7.22;1.48;;;25.00;71.10;;;;;;4992452;28;20026;-68
2022/09/03 07:53:47;;;;;;;5.15;1.50;;;25.50;70.00;;;;;;4992820;28;20353;-68
2022/09/03 07:56:14;;;;;;;2.25;1.50;;;25.90;69.40;;;;;;4992257;28;20026;-66
2022/09/03 07:58:41;;;;;;;4.18;1.25;;;26.60;68.60;;;;;;4991523;28;20030;-67
2022/09/03 08:01:12;;;;;;;3.53;1.42;;;27.30;67.10;;;;;;4992803;28;20626;-69
2022/09/03 08:03:42;;;;;;;2.60;1.40;;;27.70;65.80;;;;;;4992794;28;20026;-67
2022/09/03 08:06:08;;;;;;;4.63;1.50;;;27.90;64.80;;;;;;4992650;28;20117;-68
2022/09/03 08:08:35;;;;;;;4.47;1.67;;;28.10;64.50;;;;;;4991078;28;20027;-69
2022/09/03 08:11:12;;;;;;;3.25;1.40;;;28.30;64.20;;;;;;4993991;28;20050;-67
2022/09/03 08:13:44;;;;;;;3.17;1.50;;;28.50;64.10;;;;;;4996236;28;20018;-68
2022/09/03 08:16:17;;;;;;;3.83;1.67;;;29.10;63.70;;;;;;4995361;28;20507;-69
2022/09/03 08:18:46;;;;;;;2.72;1.42;;;29.70;62.30;;;;;;4995060;28;20030;-67
2022/09/03 08:21:18;;;;;;;5.32;1.40;;;30.10;61.30;;;;;;4995627;28;20384;-68
2022/09/03 08:23:46;;;;;;;1.92;1.58;;;30.40;60.50;;;;;;4994769;28;20159;-70
2022/09/03 08:26:12;;;;;;;3.15;1.98;;;30.50;60.10;;;;;;4995630;28;20369;-70
2022/09/03 08:28:39;;;;;;;3.50;1.80;;;30.50;60.00;;;;;;4996201;28;20042;-70
2022/09/03 08:31:11;;;;;;;5.63;1.60;;;30.70;60.10;;;;;;4995725;28;20419;-68
2022/09/03 08:33:43;;;;;;;3.08;1.73;;;30.70;59.80;;;;;;4995966;28;20026;-68
2022/09/03 08:36:11;;;;;;;2.65;1.73;;;31.10;59.60;;;;;;4995916;28;20456;-69
2022/09/03 08:38:37;;;;;;;3.92;1.42;;;31.30;58.90;;;;;;4995851;28;20023;-68
2022/09/03 08:41:35;;;;;;;4.68;1.58;;;31.30;58.90;;;;;;4995611;28;20029;-67
2022/09/03 08:44:19;;;;;;;6.72;1.80;;;31.40;58.50;;;;;;4996072;28;20014;-68
2022/09/03 08:47:04;;;;;;;6.47;1.65;;;31.70;58.20;;;;;;4995675;28;20027;-69
2022/09/03 08:49:58;;;;;;;2.42;1.23;;;32.30;57.50;;;;;;4994972;28;20034;-67
2022/09/03 08:52:31;;;;;;;4.55;1.42;;;32.90;57.00;;;;;;4995291;28;20427;-69
2022/09/03 08:55:51;;;;;;;3.08;1.50;;;33.10;56.40;;;;;;4995691;28;20058;-69
2022/09/03 08:58:24;;;;;;;2.70;1.50;;;33.20;56.20;;;;;;4973604;28;20026;-67
2022/09/03 09:01:11;;;;;;;5.25;1.90;;;33.20;56.00;;;;;;4990618;28;20559;-68
2022/09/03 09:03:46;;;;;;;4.60;1.38;;;33.30;55.70;;;;;;4992590;28;20022;-70
2022/09/03 09:06:40;;;;;;;3.45;1.50;;;33.50;55.30;;;;;;4991755;28;20014;-68
2022/09/03 09:09:34;;;;;;;4.03;1.65;;;33.40;55.20;;;;;;4995041;28;20095;-69
2022/09/03 09:12:17;;;;;;;2.78;1.48;;;33.70;55.30;;;;;;4994929;28;20033;-70
2022/09/03 09:14:49;;;;;;;5.88;1.58;;;33.90;54.60;;;;;;4993978;28;20026;-67
2022/09/03 09:17:31;;;;;;;4.15;1.50;;;33.90;54.70;;;;;;4995250;28;20026;-70
2022/09/03 09:20:02;;;;;;;5.00;1.50;;;34.10;54.50;;;;;;4994852;28;20027;-69
2022/09/03 09:22:40;;;;;;;3.80;1.70;;;34.50;54.50;;;;;;4993015;28;20034;-68
2022/09/03 09:25:16;;;;;;;1.80;1.15;;;34.80;54.00;;;;;;4994763;28;20360;-68
2022/09/03 09:27:57;;;;;;;3.65;1.60;;;35.10;53.60;;;;;;4995203;28;20018;-68
2022/09/03 09:30:22;;;;;;;4.80;1.40;;;35.30;53.40;;;;;;4995048;28;20030;-69
2022/09/03 09:32:48;;;;;;;5.38;1.45;;;35.40;52.80;;;;;;4994541;28;20037;-68
2022/09/03 09:35:15;;;;;;;3.63;1.42;;;35.60;52.70;;;;;;4994920;28;20018;-68
2022/09/03 09:37:56;;;;;;;5.40;1.40;;;36.00;51.80;;;;;;4993195;28;20034;-68
2022/09/03 09:40:35;;;;;;;2.50;0.90;;;36.00;52.00;;;;;;4994621;28;20034;-70
2022/09/03 09:43:11;;;;;;;4.78;1.48;;;36.10;51.90;;;;;;4994620;28;20038;-70
2022/09/03 09:45:39;;;;;;;7.82;1.40;;;36.10;51.40;;;;;;4994736;28;20022;-68
2022/09/03 09:48:12;;;;;;;4.90;1.42;;;36.10;51.40;;;;;;4994859;28;20022;-69
2022/09/03 09:50:37;;;;;;;3.78;1.55;;;36.10;51.70;;;;;;4994834;28;20032;-67
2022/09/03 09:53:13;;;;;;;2.58;1.25;;;36.60;51.30;;;;;;4994184;28;20018;-69
2022/09/03 09:55:52;;;;;;;2.75;1.38;;;36.80;50.80;;;;;;4994359;28;20050;-68
2022/09/03 09:58:20;;;;;;;10.13;1.90;;;36.70;51.00;;;;;;4994525;28;20029;-69
2022/09/03 10:00:57;;;;;;;7.05;1.55;;;36.70;50.90;;;;;;4994864;28;20042;-67
2022/09/03 10:03:22;;;;;;;4.30;1.40;;;36.70;50.90;;;;;;4994237;28;20113;-68
2022/09/03 10:06:52;;;;;;;3.47;1.45;;;37.00;50.90;;;;;;4992590;28;20154;-68
2022/09/03 10:08:47;;;;;;;4.10;1.30;;;37.60;50.40;;;;;;4991514;28;20577;-67
2022/09/03 10:11:13;;;;;;;3.20;1.35;;;37.80;50.10;;;;;;4993230;28;20109;-68
2022/09/03 10:13:44;;;;;;;6.18;1.70;;;38.30;49.40;;;;;;4994133;28;20026;-68
2022/09/03 10:16:21;;;;;;;3.30;1.50;;;38.60;48.90;;;;;;4994161;28;20022;-70
2022/09/03 10:18:54;;;;;;;6.15;1.40;;;38.70;48.90;;;;;;4993788;28;20168;-69
2022/09/03 10:21:24;;;;;;;4.05;1.60;;;38.50;48.60;;;;;;4993945;28;20440;-68
2022/09/03 10:24:02;;;;;;;6.35;1.23;;;38.30;48.80;;;;;;4993996;28;20026;-69
2022/09/03 10:26:31;;;;;;;5.25;1.27;;;38.40;48.40;;;;;;4993640;28;20026;-67
2022/09/03 10:29:00;;;;;;;3.40;1.42;;;38.60;48.50;;;;;;4993846;28;20023;-68
2022/09/03 10:31:52;;;;;;;4.75;1.58;;;38.80;48.50;;;;;;4993667;28;20026;-68
2022/09/03 10:34:33;;;;;;;5.72;1.58;;;38.90;48.20;;;;;;4993823;28;20056;-69
2022/09/03 10:37:05;;;;;;;5.43;1.70;;;38.90;47.50;;;;;;4993635;28;20723;-70
2022/09/03 10:39:50;;;;;;;4.53;1.52;;;38.50;47.50;;;;;;4992905;28;20088;-69
2022/09/03 10:42:38;;;;;;;2.95;1.23;;;38.10;48.00;;;;;;4993814;28;20034;-68
2022/09/03 10:45:18;;;;;;;4.45;1.20;;;37.80;48.20;;;;;;4993268;28;20412;-68
2022/09/03 10:47:48;;;;;;;1.55;1.13;;;37.70;48.60;;;;;;4993487;28;20456;-68
2022/09/03 10:50:16;;;;;;;4.28;1.30;;;37.80;48.30;;;;;;4992617;28;20168;-67
2022/09/03 10:53:12;;;;;;;5.80;1.40;;;37.80;48.10;;;;;;4993466;28;20050;-67
2022/09/03 10:56:00;;;;;;;3.22;1.45;;;37.80;48.10;;;;;;4992020;28;20735;-68
2022/09/03 10:58:40;;;;;;;6.10;1.48;;;37.90;47.60;;;;;;4992466;28;20031;-67
2022/09/03 11:01:28;;;;;;;2.60;1.27;;;37.90;47.70;;;;;;4991404;28;20033;-67
2022/09/03 11:04:14;;;;;;;3.40;1.30;;;37.90;47.90;;;;;;4992762;28;20384;-67
2022/09/03 11:07:02;;;;;;;2.70;1.15;;;38.30;47.80;;;;;;4991803;28;20045;-68
2022/09/03 11:09:39;;;;;;;2.38;1.30;;;38.90;47.40;;;;;;4991565;28;20093;-67
2022/09/03 11:12:11;;;;;;;8.55;1.45;;;39.20;46.70;;;;;;4990978;28;20380;-68
2022/09/03 11:14:43;;;;;;;4.63;1.50;;;39.20;46.30;;;;;;4991763;28;20495;-69
2022/09/03 11:17:25;;;;;;;3.88;1.40;;;39.30;46.50;;;;;;4993293;28;20061;-68
2022/09/03 11:19:59;;;;;;;2.47;1.50;;;39.10;46.90;;;;;;4993519;28;20022;-67
2022/09/03 11:22:26;;;;;;;2.88;1.00;;;39.10;46.70;;;;;;4993282;28;20042;-69
2022/09/03 11:24:58;;;;;;;3.63;1.38;;;39.00;46.70;;;;;;4991690;28;20026;-68
2022/09/03 11:27:53;;;;;;;2.90;1.40;;;39.10;46.70;;;;;;4992905;28;20531;-68
2022/09/03 11:31:06;;;;;;;4.47;1.50;;;39.30;46.50;;;;;;4993025;28;20026;-68
2022/09/03 11:33:39;;;;;;;5.70;1.65;;;39.30;46.50;;;;;;4990859;28;21870;-68
2022/09/03 11:36:05;;;;;;;2.00;1.30;;;39.50;46.20;;;;;;4992143;28;20105;-67
2022/09/03 11:38:31;;;;;;;2.60;1.15;;;39.60;46.10;;;;;;4993118;28;20528;-68
2022/09/03 11:40:59;;;;;;;3.33;1.48;;;39.60;46.10;;;;;;4991423;28;20049;-69
2022/09/03 11:43:27;;;;;;;2.38;0.80;;;39.80;46.30;;;;;;4992182;28;20698;-68
2022/09/03 11:46:15;;;;;;;2.92;1.45;;;39.90;45.80;;;;;;4994242;28;20050;-69
2022/09/03 11:48:45;;;;;;;3.47;1.55;;;40.20;46.20;;;;;;4995220;28;20037;-68
2022/09/03 11:51:29;;;;;;;4.10;1.30;;;40.40;46.20;;;;;;4996257;28;20487;-68
2022/09/03 11:54:00;;;;;;;5.28;1.20;;;40.60;45.30;;;;;;4996637;28;20030;-68
2022/09/03 11:56:27;;;;;;;5.00;1.52;;;40.80;45.20;;;;;;4996321;28;20038;-69
2022/09/03 11:59:12;;;;;;;2.17;1.42;;;41.00;45.10;;;;;;4996462;28;20464;-68
2022/09/03 12:01:55;;;;;;;2.35;1.20;;;41.30;45.00;;;;;;4996410;28;20457;-67
2022/09/03 12:05:00;;;;;;;5.15;1.40;;;41.40;45.20;;;;;;4996297;28;20077;-73
2022/09/03 12:07:47;;;;;;;4.65;1.95;;;41.30;44.90;;;;;;4995529;28;20547;-68
2022/09/03 12:10:42;;;;;;;2.92;1.42;;;41.10;44.90;;;;;;4996368;28;20068;-68
2022/09/03 12:13:28;;;;;;;4.97;1.20;;;40.50;44.80;;;;;;4994233;28;20492;-67
2022/09/03 12:16:12;;;;;;;1.65;1.20;;;40.30;45.70;;;;;;4996141;28;20088;-68
2022/09/03 12:18:40;;;;;;;4.38;1.50;;;40.10;45.40;;;;;;4995145;28;20365;-69
2022/09/03 12:21:07;;;;;;;2.33;1.80;;;40.00;45.70;;;;;;4994677;28;20034;-69
2022/09/03 12:23:38;;;;;;;3.05;1.58;;;39.90;45.40;;;;;;4996200;28;20066;-68
2022/09/03 12:26:14;;;;;;;2.58;1.10;;;39.70;45.60;;;;;;4994717;28;20519;-67
2022/09/03 12:28:42;;;;;;;3.08;1.75;;;39.80;45.80;;;;;;4996228;28;20058;-67
2022/09/03 12:31:21;;;;;;;6.82;1.55;;;39.80;45.40;;;;;;4995864;28;20033;-68
2022/09/03 12:33:53;;;;;;;3.80;1.50;;;40.00;45.10;;;;;;4995143;28;20073;-68
2022/09/03 12:36:21;;;;;;;7.45;1.35;;;40.00;44.80;;;;;;4995233;28;20372;-68
2022/09/03 12:38:47;;;;;;;4.57;1.80;;;39.80;44.80;;;;;;4994120;28;20065;-68
2022/09/03 12:41:29;;;;;;;1.48;1.15;;;39.40;45.00;;;;;;4994452;28;20049;-67
2022/09/03 12:43:58;;;;;;;3.10;1.33;;;39.10;45.80;;;;;;4993432;28;20428;-68
2022/09/03 12:46:30;;;;;;;4.25;1.17;;;38.80;45.00;;;;;;4994394;28;20026;-68
2022/09/03 12:49:02;;;;;;;2.53;1.38;;;38.40;45.60;;;;;;4992992;28;20097;-67
2022/09/03 12:51:32;;;;;;;4.50;1.55;;;38.00;46.10;;;;;;4994483;28;20073;-69
2022/09/03 12:53:58;;;;;;;2.92;1.33;;;37.60;46.40;;;;;;4994069;28;20038;-68
2022/09/03 12:56:26;;;;;;;5.00;1.48;;;37.20;46.80;;;;;;4993823;28;20029;-67
2022/09/03 12:59:00;;;;;;;4.05;1.15;;;36.80;46.80;;;;;;4993590;28;20026;-68
2022/09/03 13:01:33;;;;;;;3.55;1.40;;;36.30;46.30;;;;;;4992743;28;20090;-68
2022/09/03 13:04:08;;;;;;;2.20;1.10;;;35.80;46.80;;;;;;4991636;28;20453;-68
2022/09/03 13:06:48;;;;;;;6.32;1.50;;;35.40;47.00;;;;;;4994181;28;20041;-68
2022/09/03 13:09:19;;;;;;;2.80;1.30;;;34.90;47.30;;;;;;4993399;28;20528;-68
2022/09/03 13:11:44;;;;;;;5.13;1.63;;;34.50;47.80;;;;;;4994186;28;20080;-69
2022/09/03 13:14:12;;;;;;;3.88;1.60;;;34.20;48.00;;;;;;4994005;28;20015;-67
2022/09/03 13:16:38;;;;;;;4.97;1.50;;;33.80;48.20;;;;;;4988285;28;20026;-67
2022/09/03 13:19:10;;;;;;;4.60;1.60;;;33.50;48.80;;;;;;4995055;28;20468;-68
2022/09/03 13:22:06;;;;;;;2.58;1.60;;;33.30;48.80;;;;;;4994690;28;20148;-67